Time;durP1;ratioP1;P1;durP2;ratioP2;P2;SDS_P1;SDS_P2;PMS_P1;PMS_P2;Temp;Humidity;BMP_temperature;BMP_pressure;BME280_temperature;BME280_humidity;BME280_pressure;Samples;Min_cycle;Max_cycle;Signal;HPM_P1;HPM_P2
2022/10/05 00:02:15;;;;;;;1.97;1.00;;;;;;;10.47;100.00;98770.28;15283280;19;20025;-57
2022/10/05 00:07:39;;;;;;;3.08;1.00;;;;;;;10.39;100.00;98772.91;15280598;19;20011;-56
2022/10/05 00:13:04;;;;;;;1.80;1.00;;;;;;;10.34;100.00;98777.84;15281111;19;20006;-58
2022/10/05 00:18:31;;;;;;;2.47;1.00;;;;;;;10.27;100.00;98771.38;15278481;19;20624;-56
2022/10/05 00:23:59;;;;;;;3.42;0.98;;;;;;;10.27;100.00;98760.59;15274786;19;20019;-57
2022/10/05 00:29:30;;;;;;;3.53;1.10;;;;;;;10.22;100.00;98760.19;15285934;19;20022;-58
2022/10/05 00:34:59;;;;;;;2.60;0.90;;;;;;;10.18;100.00;98763.19;15275334;19;20024;-57
2022/10/05 00:40:34;;;;;;;2.95;1.10;;;;;;;10.10;100.00;98760.41;15282522;19;20023;-54
2022/10/05 00:46:06;;;;;;;1.58;0.80;;;;;;;10.06;100.00;98763.53;15279891;19;20022;-56
2022/10/05 00:51:38;;;;;;;3.97;1.13;;;;;;;10.05;100.00;98749.25;15279144;19;20035;-56
2022/10/05 00:57:18;;;;;;;2.30;1.10;;;;;;;10.03;100.00;98737.78;15292452;19;20007;-55
2022/10/05 01:02:52;;;;;;;2.97;0.90;;;;;;;10.10;100.00;98733.47;15292904;19;20025;-58
2022/10/05 01:08:30;;;;;;;3.92;1.00;;;;;;;10.14;100.00;98732.19;15293854;19;20018;-55
2022/10/05 01:14:05;;;;;;;1.70;1.00;;;;;;;10.24;100.00;98737.50;15282090;19;20018;-54
2022/10/05 01:19:54;;;;;;;2.58;0.95;;;;;;;10.27;100.00;98757.91;15291752;19;20373;-58
2022/10/05 01:25:31;;;;;;;1.50;0.73;;;;;;;10.29;100.00;98737.06;15285352;19;20037;-57
2022/10/05 01:31:08;;;;;;;3.10;1.10;;;;;;;10.30;100.00;98741.44;15294149;19;20035;-55
2022/10/05 01:36:40;;;;;;;2.45;1.05;;;;;;;10.26;100.00;98737.38;15288209;19;20097;-54
2022/10/05 01:42:10;;;;;;;1.45;0.85;;;;;;;10.28;100.00;98735.38;15291636;19;20010;-55
2022/10/05 01:47:46;;;;;;;2.70;1.10;;;;;;;10.28;100.00;98730.00;15298074;19;20637;-56
2022/10/05 01:53:28;;;;;;;2.53;1.00;;;;;;;10.25;100.00;98724.91;15288238;19;20026;-55
2022/10/05 01:59:01;;;;;;;3.45;1.05;;;;;;;10.25;100.00;98728.44;15289036;19;20026;-53
2022/10/05 02:04:35;;;;;;;3.20;1.15;;;;;;;10.23;100.00;98721.50;15281928;19;20383;-56
2022/10/05 02:10:26;;;;;;;2.38;1.02;;;;;;;10.24;100.00;98733.97;15287490;19;20631;-53
2022/10/05 02:15:54;;;;;;;2.50;1.05;;;;;;;10.23;100.00;98721.50;15284331;19;20019;-52
2022/10/05 02:21:23;;;;;;;3.17;1.10;;;;;;;10.16;100.00;98714.06;15292172;19;20033;-53
2022/10/05 02:26:50;;;;;;;4.15;1.20;;;;;;;10.11;100.00;98721.72;15284766;19;20092;-56
2022/10/05 02:32:22;;;;;;;3.13;1.15;;;;;;;10.05;100.00;98722.34;15286122;19;20381;-53
2022/10/05 02:37:58;;;;;;;3.90;1.35;;;;;;;9.98;100.00;98718.53;15285843;19;20796;-55
2022/10/05 02:43:33;;;;;;;3.28;1.33;;;;;;;9.84;100.00;98723.41;15289448;19;20018;-52
2022/10/05 02:49:13;;;;;;;3.55;1.20;;;;;;;9.81;100.00;98723.75;15286279;19;20465;-56
2022/10/05 02:54:59;;;;;;;3.60;1.30;;;;;;;9.81;100.00;98733.63;15284258;19;20081;-57
2022/10/05 03:00:27;;;;;;;2.25;1.10;;;;;;;9.75;100.00;98732.38;15286346;19;20025;-55
2022/10/05 03:05:56;;;;;;;3.85;1.17;;;;;;;9.74;100.00;98728.00;15279647;19;20552;-55
2022/10/05 03:11:36;;;;;;;3.10;1.40;;;;;;;9.65;100.00;98724.34;15284862;19;20496;-55
2022/10/05 03:17:14;;;;;;;2.45;1.27;;;;;;;9.59;100.00;98718.72;15281124;19;20019;-56
2022/10/05 03:22:49;;;;;;;3.20;1.20;;;;;;;9.46;100.00;98714.53;15285167;19;20019;-59
2022/10/05 03:28:27;;;;;;;5.38;1.38;;;;;;;9.37;100.00;98704.63;15289357;19;20018;-59
2022/10/05 03:34:01;;;;;;;2.35;1.10;;;;;;;9.26;100.00;98697.59;15285287;19;20022;-58
2022/10/05 03:39:34;;;;;;;3.20;1.30;;;;;;;9.13;100.00;98705.97;15285729;19;20042;-57
2022/10/05 03:45:10;;;;;;;4.25;1.40;;;;;;;9.02;100.00;98716.88;15286415;19;20026;-57
2022/10/05 03:50:47;;;;;;;6.97;1.50;;;;;;;9.02;100.00;98711.50;15285104;19;20103;-59
2022/10/05 03:56:17;;;;;;;2.80;1.35;;;;;;;9.06;100.00;98710.25;15278518;19;20026;-58
2022/10/05 04:01:51;;;;;;;2.35;1.35;;;;;;;9.10;100.00;98714.34;15282673;19;20019;-56
2022/10/05 04:07:29;;;;;;;2.58;1.40;;;;;;;9.08;100.00;98716.31;15285171;19;20027;-59
2022/10/05 04:13:00;;;;;;;3.17;1.45;;;;;;;9.10;100.00;98719.72;15281093;19;20022;-57
2022/10/05 04:18:33;;;;;;;3.63;1.50;;;;;;;9.08;100.00;98711.78;15284272;19;20025;-58
2022/10/05 04:24:07;;;;;;;2.97;1.35;;;;;;;9.05;100.00;98700.47;15282864;19;20010;-59
2022/10/05 04:29:36;;;;;;;3.97;1.65;;;;;;;9.04;100.00;98705.03;15281978;19;20473;-58
2022/10/05 04:35:16;;;;;;;2.35;1.50;;;;;;;9.05;100.00;98709.41;15276569;19;20607;-56
2022/10/05 04:40:55;;;;;;;3.15;1.70;;;;;;;9.17;100.00;98698.50;15280641;19;20727;-58
2022/10/05 04:46:38;;;;;;;2.90;1.70;;;;;;;9.15;100.00;98709.38;15279684;19;20015;-59
2022/10/05 04:52:09;;;;;;;;;;;;;;;9.15;100.00;98701.31;15284059;19;20034;-59
2022/10/05 04:57:46;;;;;;;4.05;1.52;;;;;;;9.09;100.00;98693.84;15275853;19;19957;-57
2022/10/05 05:03:28;;;;;;;4.30;1.80;;;;;;;9.09;100.00;98699.22;15276600;19;20498;-58
2022/10/05 05:09:23;;;;;;;3.97;1.50;;;;;;;9.07;100.00;98699.34;15278315;19;20036;-58
2022/10/05 05:15:04;;;;;;;4.60;1.58;;;;;;;9.06;100.00;98707.56;15271337;19;20011;-57
2022/10/05 05:20:35;;;;;;;2.70;1.77;;;;;;;9.01;100.00;98709.81;15276934;19;20509;-58
2022/10/05 05:26:28;;;;;;;2.63;1.63;;;;;;;8.93;100.00;98715.94;15271976;19;20018;-58
2022/10/05 05:32:09;;;;;;;3.72;1.70;;;;;;;8.86;100.00;98718.34;15278688;19;20015;-57
2022/10/05 05:37:40;;;;;;;2.85;1.70;;;;;;;8.84;100.00;98719.47;15276246;19;20082;-56
2022/10/05 05:43:25;;;;;;;4.70;1.70;;;;;;;8.78;100.00;98723.56;15074669;19;10001833;-55
2022/10/05 05:48:51;;;;;;;4.65;1.77;;;;;;;8.67;100.00;98729.09;15296467;19;20539;-57
2022/10/05 05:54:30;;;;;;;5.53;1.90;;;;;;;8.66;100.00;98738.13;15292528;19;20018;-57
2022/10/05 06:00:07;;;;;;;4.30;1.83;;;;;;;8.66;100.00;98732.75;15295816;19;20022;-58
2022/10/05 06:05:40;;;;;;;5.13;1.77;;;;;;;8.75;100.00;98731.94;15282082;19;20086;-56
2022/10/05 06:11:11;;;;;;;4.32;1.67;;;;;;;8.88;100.00;98727.09;15286981;19;20026;-55
2022/10/05 06:16:51;;;;;;;4.07;1.75;;;;;;;9.18;100.00;98727.91;15283116;19;20030;-58
2022/10/05 06:22:22;;;;;;;3.28;1.67;;;;;;;9.43;100.00;98732.78;15287490;19;20025;-59
2022/10/05 06:28:08;;;;;;;2.35;1.65;;;;;;;9.58;100.00;98727.81;15288618;19;20019;-56
2022/10/05 06:33:48;;;;;;;4.35;1.60;;;;;;;9.72;100.00;98727.28;15287773;19;20479;-55
2022/10/05 06:39:35;;;;;;;2.45;1.50;;;;;;;9.86;100.00;98716.03;15290768;19;20014;-58
2022/10/05 06:45:08;;;;;;;5.30;1.52;;;;;;;10.08;100.00;98719.31;15288338;19;20014;-57
2022/10/05 06:50:51;;;;;;;1.83;1.50;;;;;;;10.27;100.00;98723.75;15286685;19;20022;-56
2022/10/05 06:56:32;;;;;;;3.75;1.70;;;;;;;10.47;100.00;98716.41;15282769;19;20075;-59
2022/10/05 07:02:05;;;;;;;3.78;1.45;;;;;;;10.66;100.00;98713.72;15291041;19;20398;-57
2022/10/05 07:07:36;;;;;;;;;;;;;;;10.83;100.00;98706.63;15287861;19;20094;-56
2022/10/05 07:13:22;;;;;;;4.27;1.50;;;;;;;11.03;100.00;98705.41;15285368;19;19947;-57
2022/10/05 07:19:00;;;;;;;4.30;1.45;;;;;;;11.28;100.00;98710.16;15291868;19;20090;-57
2022/10/05 07:24:39;;;;;;;2.45;1.20;;;;;;;11.44;100.00;98706.69;15285788;19;20026;-56
2022/10/05 07:30:07;;;;;;;3.33;1.45;;;;;;;11.63;100.00;98711.84;15290347;19;20026;-55
2022/10/05 07:41:30;;;;;;;3.78;1.38;;;;;;;11.88;100.00;98703.88;15286108;19;20014;-57
2022/10/05 07:47:02;;;;;;;2.63;1.42;;;;;;;12.04;100.00;98695.00;15273896;19;20019;-57
2022/10/05 07:52:37;;;;;;;2.65;1.30;;;;;;;12.14;100.00;98697.59;15283916;19;20018;-57
2022/10/05 07:58:14;;;;;;;4.20;1.30;;;;;;;12.24;100.00;98711.78;15281592;19;20377;-57
2022/10/05 08:03:48;;;;;;;3.15;1.17;;;;;;;12.33;100.00;98699.16;15282199;19;20019;-57
2022/10/05 08:09:23;;;;;;;2.25;1.23;;;;;;;12.40;100.00;98691.22;15284254;19;20018;-58
2022/10/05 08:14:57;;;;;;;1.95;1.10;;;;;;;12.46;100.00;98677.91;15282026;19;20081;-58
2022/10/05 08:20:36;;;;;;;2.35;1.00;;;;;;;12.58;100.00;98662.19;15279006;19;20568;-58
2022/10/05 08:26:15;;;;;;;2.10;1.30;;;;;;;12.73;100.00;98666.94;15286626;19;20035;-58
2022/10/05 08:31:47;;;;;;;4.05;2.25;;;;;;;12.89;100.00;98661.50;15286393;19;20391;-59
2022/10/05 08:37:19;;;;;;;1.20;1.10;;;;;;;13.01;100.00;98648.47;15275931;19;20026;-56
2022/10/05 08:43:06;;;;;;;2.67;1.20;;;;;;;13.11;100.00;98642.91;15281483;19;20853;-56
2022/10/05 08:49:03;;;;;;;4.63;1.30;;;;;;;13.30;100.00;98647.03;15280284;19;20022;-57
2022/10/05 08:54:48;;;;;;;2.40;1.23;;;;;;;13.53;100.00;98638.19;15278127;19;20022;-56
2022/10/05 09:00:15;;;;;;;1.42;1.08;;;;;;;13.73;100.00;98635.94;15278757;19;20378;-57
2022/10/05 09:06:26;;;;;;;3.50;1.13;;;;;;;13.98;100.00;98644.78;15280051;19;20021;-59
2022/10/05 09:12:04;;;;;;;3.35;1.17;;;;;;;14.26;100.00;98651.56;15280401;19;20022;-56
2022/10/05 09:17:52;;;;;;;4.25;1.35;;;;;;;14.43;100.00;98642.28;15287949;19;20022;-56
2022/10/05 09:23:37;;;;;;;1.45;1.20;;;;;;;14.63;100.00;98636.38;15287260;19;20093;-54
2022/10/05 09:29:14;;;;;;;2.70;1.38;;;;;;;14.84;100.00;98637.59;15291431;19;20018;-58
2022/10/05 09:34:57;;;;;;;3.17;1.40;;;;;;;14.98;100.00;98638.63;15299147;19;20023;-59
2022/10/05 09:41:03;;;;;;;1.70;1.20;;;;;;;15.14;100.00;98632.19;15294140;19;20018;-57
2022/10/05 09:46:49;;;;;;;2.28;1.00;;;;;;;15.38;100.00;98628.38;15285129;19;20077;-55
2022/10/05 09:52:26;;;;;;;2.50;0.98;;;;;;;15.54;100.00;98628.19;15295920;19;20464;-56
2022/10/05 09:58:13;;;;;;;1.98;0.90;;;;;;;15.61;100.00;98622.84;15291074;19;20029;-56
2022/10/05 10:04:29;;;;;;;1.30;0.80;;;;;;;15.85;100.00;98610.00;15290851;19;20021;-56
2022/10/05 10:10:18;;;;;;;1.73;0.75;;;;;;;15.95;100.00;98599.66;15289816;19;20021;-54
2022/10/05 10:16:17;;;;;;;2.13;0.95;;;;;;;16.01;100.00;98585.31;15284803;19;20014;-54
2022/10/05 10:22:29;;;;;;;1.20;0.85;;;;;;;16.17;100.00;98580.66;15293039;19;20014;-55
2022/10/05 10:28:31;;;;;;;1.08;0.77;;;;;;;16.39;100.00;98561.66;15276402;19;20011;-51
2022/10/05 10:34:21;;;;;;;1.13;0.80;;;;;;;16.53;100.00;98574.28;15289739;19;20014;-53
2022/10/05 10:40:05;;;;;;;1.67;0.90;;;;;;;16.65;100.00;98580.06;15289247;19;20025;-56
2022/10/05 10:45:53;;;;;;;1.02;0.85;;;;;;;16.82;100.00;98586.06;15282750;19;20358;-51
2022/10/05 10:51:25;;;;;;;3.03;0.77;;;;;;;17.02;100.00;98579.94;15290906;19;20013;-51
2022/10/05 10:57:08;;;;;;;1.20;0.60;;;;;;;17.22;100.00;98586.38;15284595;19;20034;-52
2022/10/05 11:03:09;;;;;;;0.93;0.60;;;;;;;17.38;100.00;98589.78;15283344;19;20038;-54
2022/10/05 11:09:00;;;;;;;2.53;0.60;;;;;;;17.45;100.00;98596.13;15284149;19;20426;-54
2022/10/05 11:14:43;;;;;;;0.57;0.57;;;;;;;17.56;100.00;98587.38;15287356;19;20018;-56
2022/10/05 11:20:50;;;;;;;1.02;0.60;;;;;;;17.77;100.00;98598.34;15286822;19;20015;-59
2022/10/05 11:26:35;;;;;;;0.75;0.65;;;;;;;17.97;100.00;98587.53;15285445;19;20047;-57
2022/10/05 11:32:24;;;;;;;1.05;0.65;;;;;;;18.08;100.00;98583.38;15282103;19;20014;-56
2022/10/05 11:38:02;;;;;;;0.82;0.50;;;;;;;18.26;100.00;98577.34;15286267;19;20010;-57
2022/10/05 11:43:48;;;;;;;2.80;0.50;;;;;;;18.45;100.00;98573.78;15285900;19;20036;-57
2022/10/05 11:49:27;;;;;;;1.05;0.50;;;;;;;18.54;100.00;98565.38;15288464;19;20007;-53
2022/10/05 11:55:07;;;;;;;1.05;0.50;;;;;;;18.64;100.00;98569.38;15290165;19;20050;-54
2022/10/05 12:00:41;;;;;;;0.50;0.30;;;;;;;18.62;100.00;98555.09;15285409;19;20014;-57
2022/10/05 12:06:23;;;;;;;0.47;0.40;;;;;;;18.68;100.00;98550.69;15282697;19;20370;-55
2022/10/05 12:12:05;;;;;;;0.95;0.40;;;;;;;18.77;100.00;98548.59;15283199;19;20014;-59
2022/10/05 12:17:50;;;;;;;1.63;0.40;;;;;;;18.89;100.00;98551.50;15276940;19;20076;-58
2022/10/05 12:23:22;;;;;;;1.15;0.40;;;;;;;18.83;100.00;98550.47;15284128;19;20098;-55
2022/10/05 12:28:53;;;;;;;2.58;0.38;;;;;;;18.85;100.00;98545.63;15278773;19;20019;-57
2022/10/05 12:34:30;;;;;;;1.52;0.47;;;;;;;18.92;100.00;98529.25;15280646;19;20010;-58
2022/10/05 12:40:05;;;;;;;0.75;0.30;;;;;;;19.12;100.00;98533.84;15279426;19;20017;-57
2022/10/05 12:45:42;;;;;;;0.60;0.40;;;;;;;19.02;100.00;98540.59;15283157;19;20010;-55
2022/10/05 12:51:18;;;;;;;1.95;0.50;;;;;;;19.20;100.00;98531.72;15281023;19;20035;-53
2022/10/05 12:56:50;;;;;;;1.23;0.50;;;;;;;19.34;100.00;98521.63;15283636;19;20486;-55
2022/10/05 13:02:27;;;;;;;1.08;0.30;;;;;;;19.35;100.00;98530.66;15280564;19;20015;-58
2022/10/05 13:08:06;;;;;;;1.30;0.40;;;;;;;19.57;100.00;98523.00;15279129;19;20019;-59
2022/10/05 13:13:48;;;;;;;2.60;0.70;;;;;;;19.54;100.00;98521.50;15278184;19;20445;-57
2022/10/05 13:19:35;;;;;;;2.60;0.80;;;;;;;19.75;100.00;98516.81;15282405;19;20023;-54
2022/10/05 13:25:16;;;;;;;2.60;0.75;;;;;;;19.98;100.00;98521.75;15280986;19;20014;-56
2022/10/05 13:30:46;;;;;;;1.15;0.60;;;;;;;20.01;100.00;98518.56;15281631;19;20018;-58
2022/10/05 13:36:19;;;;;;;0.65;0.60;;;;;;;20.22;100.00;98527.47;15281769;19;20480;-59
2022/10/05 13:41:54;;;;;;;2.28;0.60;;;;;;;20.07;100.00;98519.59;15273376;19;20050;-58
2022/10/05 13:47:26;;;;;;;2.25;0.55;;;;;;;20.02;100.00;98508.44;15278590;19;20022;-58
2022/10/05 13:52:59;;;;;;;0.95;0.60;;;;;;;19.84;100.00;98514.63;15276549;19;20013;-58
2022/10/05 13:58:36;;;;;;;1.10;0.70;;;;;;;19.77;100.00;98520.13;15282667;19;20021;-57
2022/10/05 14:04:15;;;;;;;2.08;0.80;;;;;;;19.91;100.00;98526.41;15278902;19;20018;-58
2022/10/05 14:09:42;;;;;;;1.38;0.60;;;;;;;19.93;100.00;98518.84;15281668;19;20085;-57
2022/10/05 14:15:22;;;;;;;1.35;0.50;;;;;;;19.96;100.00;98518.38;15272695;19;20010;-59
2022/10/05 14:20:47;;;;;;;1.90;0.40;;;;;;;19.99;100.00;98517.94;15279969;19;20010;-58
2022/10/05 14:26:33;;;;;;;0.85;0.50;;;;;;;20.02;100.00;98516.66;15278164;19;20018;-56
2022/10/05 14:32:03;;;;;;;1.38;0.55;;;;;;;19.88;100.00;98526.00;15277731;19;20827;-58
2022/10/05 14:37:35;;;;;;;2.88;0.68;;;;;;;19.86;100.00;98513.41;15279707;19;20019;-56
2022/10/05 14:43:01;;;;;;;1.40;0.60;;;;;;;19.68;100.00;98507.78;15277335;19;20524;-58
2022/10/05 14:48:38;;;;;;;1.25;0.70;;;;;;;19.71;100.00;98505.44;15271255;19;20022;-58
2022/10/05 14:54:13;;;;;;;1.67;0.70;;;;;;;19.74;100.00;98506.06;15274488;19;20014;-57
2022/10/05 15:00:02;;;;;;;1.25;0.82;;;;;;;19.79;100.00;98496.16;15278853;19;20022;-58
2022/10/05 15:05:34;;;;;;;1.92;0.90;;;;;;;19.60;100.00;98488.91;15277660;19;20393;-58
2022/10/05 15:11:05;;;;;;;2.13;0.70;;;;;;;19.55;100.00;98489.56;15273496;19;20025;-58
2022/10/05 15:16:37;;;;;;;2.90;0.70;;;;;;;19.35;100.00;98484.19;15275307;19;20029;-56
2022/10/05 15:22:17;;;;;;;1.25;0.90;;;;;;;19.01;100.00;98492.50;15273560;19;20025;-58
2022/10/05 15:27:55;;;;;;;1.38;0.80;;;;;;;18.99;100.00;98483.72;15270004;19;20038;-57
2022/10/05 15:33:30;;;;;;;1.55;0.70;;;;;;;19.18;100.00;98476.47;15269856;19;20053;-56
2022/10/05 15:39:07;;;;;;;0.93;0.70;;;;;;;19.39;100.00;98475.34;15271124;19;20022;-57
2022/10/05 15:44:48;;;;;;;1.23;0.80;;;;;;;19.52;100.00;98468.16;15271023;19;20021;-56
2022/10/05 15:50:24;;;;;;;2.67;0.77;;;;;;;19.31;100.00;98467.41;15265834;19;20046;-57
2022/10/05 15:55:53;;;;;;;1.90;0.70;;;;;;;19.00;100.00;98466.25;15275648;19;20022;-57
2022/10/05 16:01:22;;;;;;;2.35;0.80;;;;;;;18.82;100.00;98463.34;15271999;19;20082;-52
2022/10/05 16:12:42;;;;;;;1.15;0.70;;;;;;;18.62;100.00;98458.78;15271999;19;20038;-53
2022/10/05 16:18:34;;;;;;;1.73;0.70;;;;;;;18.50;100.00;98460.47;15268973;19;20018;-54
2022/10/05 16:24:15;;;;;;;3.33;0.80;;;;;;;18.33;100.00;98460.91;15263586;19;20078;-54
2022/10/05 16:29:52;;;;;;;2.60;0.80;;;;;;;18.16;100.00;98461.34;15263481;19;20014;-54
2022/10/05 16:35:26;;;;;;;1.55;0.85;;;;;;;17.95;100.00;98458.75;15271080;19;20029;-57
2022/10/05 16:41:02;;;;;;;1.75;0.70;;;;;;;17.69;100.00;98457.69;15265110;19;20010;-56
2022/10/05 16:46:37;;;;;;;2.05;0.60;;;;;;;17.53;100.00;98465.19;15264183;19;20042;-55
2022/10/05 16:52:06;;;;;;;1.92;0.82;;;;;;;17.32;100.00;98465.34;15243669;19;20085;-55
2022/10/05 16:57:35;;;;;;;1.08;0.70;;;;;;;17.16;100.00;98480.16;15271713;19;20041;-56
2022/10/05 17:03:23;;;;;;;1.38;0.82;;;;;;;17.10;100.00;98481.81;15269013;19;20013;-56
2022/10/05 17:09:16;;;;;;;1.80;0.82;;;;;;;16.98;100.00;98495.13;15266696;19;20011;-54
2022/10/05 17:14:49;;;;;;;2.65;0.90;;;;;;;16.81;100.00;98496.47;15272481;19;20019;-53
2022/10/05 17:20:34;;;;;;;3.00;0.80;;;;;;;16.67;100.00;98496.38;15261596;19;20029;-57
2022/10/05 17:26:03;;;;;;;1.83;0.70;;;;;;;16.58;100.00;98501.13;15259605;19;20029;-59
2022/10/05 17:31:31;;;;;;;1.48;0.85;;;;;;;16.53;100.00;98500.03;15268374;19;20021;-56
2022/10/05 17:36:59;;;;;;;1.67;1.00;;;;;;;16.41;100.00;98497.00;15276124;19;20018;-57
2022/10/05 17:42:50;;;;;;;3.08;0.90;;;;;;;16.37;100.00;98499.28;15281794;19;20014;-57
2022/10/05 17:48:17;;;;;;;1.58;1.00;;;;;;;16.29;100.00;98499.44;15280936;19;20019;-56
2022/10/05 17:59:47;;;;;;;1.95;0.75;;;;;;;16.24;100.00;98491.88;15272092;19;20471;-54
2022/10/05 18:05:26;;;;;;;2.10;0.80;;;;;;;16.25;100.00;98498.13;15282232;19;20488;-57
2022/10/05 18:11:19;;;;;;;1.63;0.85;;;;;;;16.19;100.00;98494.31;15278243;19;20641;-55
2022/10/05 18:17:07;;;;;;;2.88;0.90;;;;;;;16.17;100.00;98499.13;15270136;19;20379;-55
2022/10/05 18:22:33;;;;;;;1.58;0.90;;;;;;;16.12;100.00;98496.97;15277396;19;20587;-56
2022/10/05 18:28:10;;;;;;;3.22;1.10;;;;;;;16.16;100.00;98511.88;15270280;19;20415;-52
2022/10/05 18:34:06;;;;;;;1.98;0.80;;;;;;;16.18;100.00;98515.25;15272295;19;20022;-57
2022/10/05 18:39:52;;;;;;;1.83;0.80;;;;;;;16.22;100.00;98529.28;15274431;19;20477;-57
2022/10/05 18:45:26;;;;;;;1.38;0.80;;;;;;;16.22;100.00;98542.88;15275672;19;20351;-60
2022/10/05 18:51:00;;;;;;;1.08;0.80;;;;;;;16.25;100.00;98547.06;15273756;19;20090;-55
2022/10/05 18:56:35;;;;;;;2.45;0.82;;;;;;;16.26;100.00;98560.47;15278347;19;20025;-52
2022/10/05 19:02:13;;;;;;;1.27;0.70;;;;;;;16.26;100.00;98560.47;15272606;19;20378;-58
2022/10/05 19:07:49;;;;;;;2.38;0.90;;;;;;;16.27;100.00;98555.88;15275213;19;20020;-53
2022/10/05 19:13:28;;;;;;;1.10;0.90;;;;;;;16.27;100.00;98556.72;15272047;19;20018;-57
2022/10/05 19:19:22;;;;;;;2.05;0.82;;;;;;;16.23;100.00;98562.75;15251711;19;20022;-52
2022/10/05 19:24:59;;;;;;;1.17;0.80;;;;;;;16.25;100.00;98569.69;15272828;19;20018;-55
2022/10/05 19:30:27;;;;;;;1.27;0.93;;;;;;;16.21;100.00;98579.25;15269525;19;20021;-57
2022/10/05 19:36:07;;;;;;;1.77;1.00;;;;;;;16.22;100.00;98589.09;15271973;19;20031;-57
2022/10/05 19:41:46;;;;;;;1.63;0.60;;;;;;;16.22;100.00;98596.41;15271187;19;20018;-58
2022/10/05 19:47:23;;;;;;;1.30;0.90;;;;;;;16.21;100.00;98601.00;15265522;19;20804;-57
2022/10/05 19:52:53;;;;;;;2.92;1.00;;;;;;;16.20;100.00;98603.91;15274151;19;20014;-57
2022/10/05 19:58:27;;;;;;;1.33;0.80;;;;;;;16.16;100.00;98607.00;15265778;19;20010;-54
2022/10/05 20:03:54;;;;;;;2.58;0.93;;;;;;;16.14;100.00;98611.78;15267396;19;20627;-58
2022/10/05 20:09:31;;;;;;;1.00;0.80;;;;;;;16.12;100.00;98610.31;15263479;19;20011;-57
2022/10/05 20:20:48;;;;;;;1.43;0.90;;;;;;;16.00;100.00;98616.25;15268049;19;20022;-58
2022/10/05 20:32:28;;;;;;;1.95;1.10;;;;;;;15.82;100.00;98627.50;15270451;19;20010;-58
2022/10/05 20:37:54;;;;;;;1.77;0.90;;;;;;;15.78;100.00;98638.94;15264044;19;20014;-58
2022/10/05 20:43:21;;;;;;;1.40;1.15;;;;;;;15.70;100.00;98659.72;15265377;19;20022;-56
2022/10/05 20:48:47;;;;;;;2.10;0.90;;;;;;;15.66;100.00;98666.59;15266648;19;20015;-55
2022/10/05 20:54:19;;;;;;;1.80;1.27;;;;;;;15.66;100.00;98665.72;15266512;19;20014;-57
2022/10/05 20:59:53;;;;;;;2.90;1.08;;;;;;;15.67;100.00;98673.69;15267233;19;20027;-59
2022/10/05 21:05:18;;;;;;;2.85;1.20;;;;;;;15.64;100.00;98678.66;15269519;19;20014;-57
2022/10/05 21:10:42;;;;;;;1.15;0.90;;;;;;;15.65;100.00;98692.06;15271851;19;20018;-54
2022/10/05 21:16:12;;;;;;;1.63;1.00;;;;;;;15.61;100.00;98688.03;15283381;19;20014;-55
2022/10/05 21:21:36;;;;;;;3.15;0.90;;;;;;;15.61;100.00;98688.03;15280998;19;20021;-54
2022/10/05 21:27:01;;;;;;;1.30;1.00;;;;;;;15.62;100.00;98700.56;15276241;19;20011;-54
2022/10/05 21:32:29;;;;;;;1.70;0.80;;;;;;;15.60;100.00;98702.63;15282588;19;20025;-58
2022/10/05 21:38:01;;;;;;;1.38;1.00;;;;;;;15.54;100.00;98709.66;15276509;19;20013;-55
2022/10/05 21:43:26;;;;;;;1.95;0.90;;;;;;;15.56;100.00;98707.59;15272730;19;20011;-59
2022/10/05 21:48:54;;;;;;;2.60;0.90;;;;;;;15.50;100.00;98705.63;15275171;19;20025;-57
2022/10/05 21:54:21;;;;;;;1.13;0.90;;;;;;;15.49;100.00;98705.81;15274925;19;20026;-54
2022/10/05 21:59:47;;;;;;;2.13;0.90;;;;;;;15.51;100.00;98722.75;15276236;19;20026;-55
2022/10/05 22:05:20;;;;;;;2.97;1.00;;;;;;;15.51;100.00;98726.34;15281783;19;20040;-58
2022/10/05 22:10:45;;;;;;;2.13;1.00;;;;;;;15.51;100.00;98725.47;15274697;19;20022;-53
2022/10/05 22:16:10;;;;;;;2.92;1.00;;;;;;;15.61;100.00;98723.31;15276060;19;20095;-56
2022/10/05 22:21:40;;;;;;;1.67;0.90;;;;;;;15.54;100.00;98730.53;15277314;19;20022;-56
2022/10/05 22:27:04;;;;;;;0.93;0.82;;;;;;;15.53;100.00;98735.09;15272348;19;20496;-57
2022/10/05 22:32:29;;;;;;;1.45;0.90;;;;;;;15.52;100.00;98743.47;15276763;19;20638;-56
2022/10/05 22:37:56;;;;;;;2.10;0.88;;;;;;;15.49;100.00;98746.53;15273292;19;20394;-58
2022/10/05 22:43:21;;;;;;;1.60;0.95;;;;;;;15.44;100.00;98757.13;15272999;19;20015;-57
2022/10/05 22:48:47;;;;;;;1.30;0.77;;;;;;;15.38;100.00;98764.97;15267548;19;20010;-57
2022/10/05 22:54:14;;;;;;;1.85;0.80;;;;;;;15.77;100.00;98767.66;15271197;19;20942;-55
2022/10/05 22:59:41;;;;;;;2.25;1.08;;;;;;;15.85;100.00;98770.28;15274276;19;20018;-53
2022/10/05 23:05:07;;;;;;;1.67;0.82;;;;;;;15.80;100.00;98772.72;15276826;19;20010;-55
2022/10/05 23:10:35;;;;;;;1.95;0.90;;;;;;;15.68;100.00;98781.31;15267952;19;20024;-57
2022/10/05 23:16:13;;;;;;;2.33;0.90;;;;;;;15.60;100.00;98778.66;15275094;19;20810;-57
2022/10/05 23:21:37;;;;;;;0.98;0.85;;;;;;;15.59;100.00;98782.41;15269949;19;20082;-57
2022/10/05 23:27:04;;;;;;;3.05;1.08;;;;;;;15.53;100.00;98777.72;15276015;19;20049;-57
2022/10/05 23:32:29;;;;;;;1.98;1.05;;;;;;;15.45;100.00;98785.97;15272618;19;20022;-58
2022/10/05 23:37:54;;;;;;;2.13;1.08;;;;;;;15.34;100.00;98777.22;15269301;19;20014;-58
2022/10/05 23:43:21;;;;;;;1.65;0.90;;;;;;;15.21;100.00;98793.28;15269094;19;20398;-56
2022/10/05 23:48:49;;;;;;;1.88;1.02;;;;;;;15.00;100.00;98797.50;15268002;19;20009;-56
2022/10/05 23:54:15;;;;;;;2.38;1.10;;;;;;;14.98;100.00;98807.72;15262185;19;20031;-55
2022/10/05 23:59:43;;;;;;;2.47;1.20;;;;;;;14.92;100.00;98803.84;15269635;19;20017;-55
